Terminal Aerodrome Forecast
Issued by NWS Cleveland, OH

Home | Current Version | Previous Version | Graphics & Text | Print | Product List | Glossary On
Versions: 1 2 3 4 5 6 7 8 9 10 11 12 13 14 15
000
FTUS41 KCLE 162327
TAFMFD
TAF
KMFD 162327Z 1700/1724 VRB04KT P6SM SCT080 BKN150
     FM170600 16006KT P6SM BKN150
     FM171400 19010KT P6SM BKN200=

USA.gov is the U.S. government's official web portal to all federal, state and local government web resources and services.